Time;durP1;ratioP1;P1;durP2;ratioP2;P2;SDS_P1;SDS_P2;PMS_P1;PMS_P2;Temp;Humidity;BMP_temperature;BMP_pressure;BME280_temperature;BME280_humidity;BME280_pressure;Samples;Min_cycle;Max_cycle;Signal;HPM_P1;HPM_P2
2022/09/04 00:01:54;;;;;;;2.73;2.53;;;24.30;64.50;;;;;;4998797;28;20456;-49
2022/09/04 00:04:33;;;;;;;2.50;2.30;;;24.30;64.30;;;;;;5002360;28;20485;-46
2022/09/04 00:07:11;;;;;;;2.30;2.20;;;24.30;64.30;;;;;;5014831;28;20855;-46
2022/09/04 00:09:42;;;;;;;3.17;2.37;;;24.30;64.10;;;;;;5005146;28;20448;-46
2022/09/04 00:12:08;;;;;;;2.40;2.20;;;24.30;63.90;;;;;;5001724;28;20454;-47
2022/09/04 00:14:44;;;;;;;2.10;1.80;;;24.40;64.10;;;;;;4997744;28;21390;-46
2022/09/04 00:17:21;;;;;;;2.03;1.73;;;24.40;63.70;;;;;;4998826;28;20206;-46
2022/09/04 00:19:55;;;;;;;4.43;2.20;;;24.30;61.20;;;;;;4998141;28;20460;-47
2022/09/04 00:22:20;;;;;;;2.10;1.90;;;24.40;60.20;;;;;;5002439;28;21003;-46
2022/09/04 00:24:57;;;;;;;2.07;1.80;;;24.50;59.70;;;;;;5003932;28;20567;-46
2022/09/04 00:27:28;;;;;;;3.73;2.50;;;24.50;59.80;;;;;;5005160;28;20198;-46
2022/09/04 00:30:07;;;;;;;3.27;2.10;;;24.60;60.30;;;;;;5009258;28;20472;-45
2022/09/04 00:32:50;;;;;;;1.77;1.60;;;24.60;60.50;;;;;;5004132;28;20452;-47
2022/09/04 00:35:37;;;;;;;2.83;1.87;;;24.60;59.50;;;;;;5009023;28;20453;-46
2022/09/04 00:38:25;;;;;;;2.40;2.20;;;24.60;59.70;;;;;;5003659;28;20576;-47
2022/09/04 00:41:10;;;;;;;2.53;2.33;;;24.40;60.00;;;;;;5008390;28;20490;-50
2022/09/04 00:44:16;;;;;;;2.20;2.00;;;24.40;60.40;;;;;;5009845;28;20627;-50
2022/09/04 00:47:00;;;;;;;3.53;2.37;;;24.40;60.30;;;;;;5008432;28;21239;-46
2022/09/04 00:49:45;;;;;;;2.07;1.97;;;24.40;60.20;;;;;;5009316;28;20451;-48
2022/09/04 00:52:48;;;;;;;2.23;2.10;;;24.50;60.20;;;;;;5008216;28;20476;-46
2022/09/04 00:55:49;;;;;;;2.53;2.33;;;24.40;59.90;;;;;;5009806;28;21349;-45
2022/09/04 00:58:36;;;;;;;2.33;2.13;;;24.50;59.60;;;;;;5020629;28;20489;-46
2022/09/04 01:01:02;;;;;;;3.07;2.00;;;24.50;59.50;;;;;;5004913;28;20467;-46
2022/09/04 01:03:39;;;;;;;3.00;2.67;;;24.60;59.50;;;;;;5002878;28;20441;-46
2022/09/04 01:06:22;;;;;;;2.47;2.27;;;24.60;59.30;;;;;;5003552;28;20193;-47
2022/09/04 01:09:00;;;;;;;2.53;2.30;;;24.70;59.30;;;;;;5007084;28;20446;-46
2022/09/04 01:11:47;;;;;;;4.17;2.33;;;24.60;59.20;;;;;;5014306;28;20944;-46
2022/09/04 01:14:40;;;;;;;3.13;2.93;;;24.70;59.10;;;;;;5010302;28;20495;-49
2022/09/04 01:17:11;;;;;;;4.37;3.50;;;24.70;59.00;;;;;;5007922;28;20449;-46
2022/09/04 01:20:11;;;;;;;3.80;3.13;;;24.80;59.20;;;;;;5003552;28;20445;-47
2022/09/04 01:22:58;;;;;;;3.07;2.83;;;24.70;59.70;;;;;;5001597;28;20986;-47
2022/09/04 01:25:33;;;;;;;3.33;3.03;;;24.50;59.90;;;;;;5007483;28;20452;-47
2022/09/04 01:28:32;;;;;;;3.93;3.60;;;24.40;60.20;;;;;;5008008;28;20444;-46
2022/09/04 01:31:00;;;;;;;5.17;2.97;;;24.30;60.10;;;;;;5003660;28;20818;-47
2022/09/04 01:33:38;;;;;;;3.60;3.10;;;24.30;60.30;;;;;;5003818;28;20445;-50
2022/09/04 01:36:36;;;;;;;4.97;4.00;;;24.30;60.30;;;;;;4996208;28;20569;-47
2022/09/04 01:39:02;;;;;;;3.63;2.43;;;24.20;60.40;;;;;;5001377;28;20495;-47
2022/09/04 01:41:43;;;;;;;2.93;2.50;;;24.10;60.70;;;;;;5008412;28;20544;-49
2022/09/04 01:44:11;;;;;;;5.50;3.47;;;24.20;60.80;;;;;;5008638;28;20489;-46
2022/09/04 01:46:42;;;;;;;3.93;3.50;;;24.10;60.60;;;;;;4999978;28;20560;-48
2022/09/04 01:49:26;;;;;;;2.87;2.67;;;24.10;60.50;;;;;;5009814;28;20441;-47
2022/09/04 01:52:07;;;;;;;4.47;3.00;;;24.10;60.40;;;;;;5004548;28;20790;-47
2022/09/04 01:54:51;;;;;;;3.63;2.60;;;24.10;60.50;;;;;;5009721;28;20448;-49
2022/09/04 01:57:28;;;;;;;3.13;2.83;;;24.10;60.80;;;;;;5006414;28;20790;-49
2022/09/04 02:00:08;;;;;;;2.60;2.40;;;24.10;60.50;;;;;;5009646;28;20505;-47
2022/09/04 02:03:05;;;;;;;3.00;2.53;;;23.90;61.30;;;;;;5008288;28;20806;-46
2022/09/04 02:05:31;;;;;;;3.33;3.03;;;23.90;61.50;;;;;;5001962;28;20512;-51
2022/09/04 02:08:20;;;;;;;3.53;3.23;;;23.50;62.60;;;;;;5008790;28;20445;-47
2022/09/04 02:11:04;;;;;;;3.77;3.47;;;23.30;63.70;;;;;;4999156;28;20202;-47
2022/09/04 02:13:43;;;;;;;7.77;4.40;;;23.50;63.30;;;;;;4994702;28;20461;-47
2022/09/04 02:16:32;;;;;;;4.00;3.40;;;23.60;63.00;;;;;;5006736;28;20500;-48
2022/09/04 02:19:13;;;;;;;4.60;3.20;;;23.60;62.50;;;;;;5008797;28;20568;-49
2022/09/04 02:22:00;;;;;;;8.90;3.13;;;23.60;62.20;;;;;;5004303;28;20461;-46
2022/09/04 02:25:02;;;;;;;2.80;2.60;;;23.70;62.20;;;;;;5002535;28;20507;-49
2022/09/04 02:27:46;;;;;;;3.60;3.30;;;23.80;61.90;;;;;;5007102;28;20504;-49
2022/09/04 02:30:15;;;;;;;3.33;3.03;;;23.70;61.20;;;;;;5008074;28;20441;-49
2022/09/04 02:33:10;;;;;;;3.30;2.70;;;23.70;61.20;;;;;;5005381;28;20515;-46
2022/09/04 02:35:46;;;;;;;4.20;3.03;;;23.70;62.20;;;;;;5008628;28;20449;-47
2022/09/04 02:38:30;;;;;;;6.63;2.87;;;23.60;61.60;;;;;;5006364;28;20503;-50
2022/09/04 02:41:02;;;;;;;3.90;3.60;;;23.70;61.40;;;;;;5005566;28;20448;-46
2022/09/04 02:44:00;;;;;;;3.70;2.73;;;23.70;61.30;;;;;;5006849;28;20492;-46
2022/09/04 02:46:44;;;;;;;3.47;3.17;;;23.70;61.10;;;;;;5006314;28;20449;-46
2022/09/04 02:49:28;;;;;;;3.17;2.97;;;23.70;61.10;;;;;;5004823;28;20748;-46
2022/09/04 02:52:03;;;;;;;3.10;2.90;;;23.70;61.20;;;;;;5007377;28;20453;-48
2022/09/04 02:55:13;;;;;;;3.63;3.40;;;23.70;61.10;;;;;;5005599;28;20448;-47
2022/09/04 02:58:00;;;;;;;3.23;2.93;;;23.70;60.80;;;;;;4961638;28;20801;-49
2022/09/04 03:01:13;;;;;;;4.53;3.33;;;23.70;60.60;;;;;;4957068;28;20550;-48
2022/09/04 03:04:12;;;;;;;4.10;3.80;;;23.70;60.60;;;;;;4989581;28;20962;-46
2022/09/04 03:06:55;;;;;;;3.40;3.10;;;23.70;60.60;;;;;;5002094;28;20487;-46
2022/09/04 03:09:28;;;;;;;4.27;3.90;;;23.70;60.80;;;;;;5006293;28;20453;-46
2022/09/04 03:12:04;;;;;;;3.50;2.70;;;23.60;60.80;;;;;;5004401;28;20461;-46
2022/09/04 03:14:47;;;;;;;2.60;2.40;;;23.60;60.80;;;;;;5006632;28;20448;-49
2022/09/04 03:17:24;;;;;;;2.63;2.50;;;23.50;60.80;;;;;;5006267;28;20452;-48
2022/09/04 03:20:03;;;;;;;2.13;2.00;;;23.50;61.30;;;;;;5011955;28;20453;-48
2022/09/04 03:22:42;;;;;;;2.50;2.30;;;23.40;61.40;;;;;;5006975;28;20455;-46
2022/09/04 03:25:37;;;;;;;3.80;2.13;;;23.40;61.10;;;;;;5006077;28;20452;-47
2022/09/04 03:28:07;;;;;;;3.07;2.70;;;23.40;61.30;;;;;;4998891;28;20463;-50
2022/09/04 03:30:36;;;;;;;2.63;2.43;;;23.40;61.10;;;;;;5000305;28;20444;-48
2022/09/04 03:33:28;;;;;;;2.50;2.20;;;23.40;60.80;;;;;;5003409;28;20448;-50
2022/09/04 03:36:25;;;;;;;2.80;2.60;;;23.40;60.60;;;;;;5005466;28;20509;-50
2022/09/04 03:39:08;;;;;;;2.50;2.30;;;23.40;61.00;;;;;;5006788;28;20487;-50
2022/09/04 03:41:48;;;;;;;3.20;3.00;;;23.40;61.60;;;;;;5017811;28;21006;-49
2022/09/04 03:44:28;;;;;;;2.70;2.50;;;23.50;60.90;;;;;;5009422;28;20468;-50
2022/09/04 03:47:09;;;;;;;2.80;2.60;;;23.50;60.50;;;;;;5009542;28;20456;-51
2022/09/04 03:49:57;;;;;;;2.47;2.27;;;23.40;60.50;;;;;;5008980;28;20441;-47
2022/09/04 03:52:35;;;;;;;2.80;2.30;;;23.30;60.80;;;;;;5004680;28;20436;-51
2022/09/04 03:55:06;;;;;;;6.37;2.30;;;23.30;60.90;;;;;;5010895;28;20444;-47
2022/09/04 03:57:53;;;;;;;2.40;2.20;;;23.30;60.90;;;;;;5015486;28;20526;-48
2022/09/04 04:00:20;;;;;;;2.50;2.30;;;23.40;60.80;;;;;;5008657;28;20452;-49
2022/09/04 04:03:30;;;;;;;2.93;2.60;;;23.40;60.80;;;;;;5011640;28;20480;-50
2022/09/04 04:06:07;;;;;;;3.33;3.13;;;23.40;60.70;;;;;;4986550;28;20453;-50
2022/09/04 04:08:50;;;;;;;2.77;2.57;;;23.40;60.00;;;;;;4980958;28;21066;-46
2022/09/04 04:12:03;;;;;;;2.70;2.50;;;23.40;60.10;;;;;;5002946;28;20569;-48
2022/09/04 04:14:29;;;;;;;3.13;2.93;;;23.40;60.30;;;;;;4996375;28;20552;-49
2022/09/04 04:17:33;;;;;;;3.23;2.93;;;23.30;60.20;;;;;;5007920;28;20485;-47
2022/09/04 04:20:36;;;;;;;2.80;2.60;;;23.40;60.10;;;;;;5006741;28;20472;-48
2022/09/04 04:23:28;;;;;;;2.40;2.20;;;23.30;60.30;;;;;;5005614;28;20457;-50
2022/09/04 04:26:12;;;;;;;2.07;1.97;;;23.30;60.30;;;;;;5008188;28;20510;-50
2022/09/04 04:28:58;;;;;;;3.40;3.00;;;23.30;60.50;;;;;;5009835;28;20452;-46
2022/09/04 04:31:33;;;;;;;3.70;2.43;;;23.30;60.30;;;;;;5008750;28;20819;-47
2022/09/04 04:34:01;;;;;;;3.53;3.10;;;23.30;60.20;;;;;;5008612;28;20444;-50
2022/09/04 04:36:51;;;;;;;6.23;2.87;;;23.30;59.90;;;;;;5007295;28;20566;-50
2022/09/04 04:39:37;;;;;;;3.50;2.73;;;23.10;60.10;;;;;;5008112;28;20499;-48
2022/09/04 04:42:27;;;;;;;4.30;2.80;;;22.80;61.50;;;;;;5008084;28;20488;-47
2022/09/04 04:48:39;;;;;;;2.47;2.27;;;22.70;63.20;;;;;;5009295;28;20508;-47
2022/09/04 04:51:22;;;;;;;7.30;2.43;;;22.90;62.30;;;;;;4992761;28;20948;-49
2022/09/04 04:54:01;;;;;;;3.57;2.20;;;22.90;61.60;;;;;;5000793;28;20456;-49
2022/09/04 04:56:45;;;;;;;1.93;1.83;;;23.10;61.30;;;;;;5008375;28;20565;-48
2022/09/04 04:59:22;;;;;;;2.30;2.20;;;23.10;60.80;;;;;;5006759;28;20550;-45
2022/09/04 05:02:06;;;;;;;2.00;1.90;;;23.20;60.60;;;;;;5008214;28;20463;-47
2022/09/04 05:05:01;;;;;;;2.97;2.30;;;23.20;61.00;;;;;;5002182;28;20825;-45
2022/09/04 05:07:51;;;;;;;2.93;2.70;;;23.30;60.00;;;;;;4999201;28;20445;-46
2022/09/04 05:10:38;;;;;;;2.40;2.20;;;23.20;59.90;;;;;;5009000;28;20881;-47
2022/09/04 05:13:22;;;;;;;2.20;2.10;;;23.30;60.00;;;;;;4999696;28;20895;-50
2022/09/04 05:16:02;;;;;;;2.63;2.00;;;23.30;60.70;;;;;;5010397;28;20885;-47
2022/09/04 05:19:10;;;;;;;3.20;2.77;;;23.30;60.00;;;;;;5007160;28;20484;-49
2022/09/04 05:21:56;;;;;;;2.43;2.33;;;23.30;60.10;;;;;;5007701;28;20453;-48
2022/09/04 05:24:37;;;;;;;2.60;2.40;;;23.30;60.00;;;;;;5003535;28;20504;-46
2022/09/04 05:27:45;;;;;;;2.80;2.60;;;23.30;60.00;;;;;;5009501;28;20457;-47
2022/09/04 05:30:29;;;;;;;2.80;2.60;;;23.30;60.20;;;;;;5001480;28;21161;-46
2022/09/04 05:33:32;;;;;;;2.37;2.20;;;23.30;60.20;;;;;;5015124;28;20444;-47
2022/09/04 05:36:15;;;;;;;9.80;3.03;;;23.20;60.30;;;;;;4997788;28;20453;-47
2022/09/04 05:38:50;;;;;;;10.73;2.97;;;23.20;60.00;;;;;;5005716;28;20499;-47
2022/09/04 05:41:21;;;;;;;11.80;3.03;;;22.80;61.10;;;;;;5004378;28;20484;-49
2022/09/04 05:44:04;;;;;;;7.67;3.17;;;22.40;63.20;;;;;;5010582;28;20489;-46
2022/09/04 05:46:37;;;;;;;6.27;3.33;;;22.20;64.10;;;;;;5010071;28;20445;-50
2022/09/04 05:49:21;;;;;;;39.60;4.70;;;22.00;65.00;;;;;;5011967;28;20516;-50
2022/09/04 05:52:04;;;;;;;9.17;3.80;;;21.90;65.60;;;;;;5003904;28;20472;-48
2022/09/04 05:55:00;;;;;;;6.63;3.43;;;21.70;66.70;;;;;;5002314;28;20449;-46
2022/09/04 05:57:47;;;;;;;5.73;3.50;;;21.70;67.00;;;;;;5003116;28;20457;-46
2022/09/04 06:00:18;;;;;;;3.87;3.57;;;21.70;67.30;;;;;;5006491;28;20457;-47
2022/09/04 06:02:52;;;;;;;3.63;3.43;;;21.80;67.40;;;;;;5006974;28;20445;-50
2022/09/04 06:05:36;;;;;;;3.37;3.17;;;21.90;67.30;;;;;;5009125;28;20448;-48
2022/09/04 06:08:17;;;;;;;4.13;3.80;;;21.90;67.40;;;;;;5020390;28;20461;-46
2022/09/04 06:11:17;;;;;;;3.33;3.13;;;22.00;67.70;;;;;;5012340;28;20456;-47
2022/09/04 06:14:00;;;;;;;3.93;3.60;;;22.00;67.90;;;;;;5001997;28;20452;-47
2022/09/04 06:16:34;;;;;;;3.43;3.23;;;21.90;68.20;;;;;;5005914;28;20445;-48
2022/09/04 06:19:18;;;;;;;3.63;3.37;;;21.80;68.30;;;;;;5017728;28;20487;-46
2022/09/04 06:22:06;;;;;;;3.60;3.30;;;21.90;68.30;;;;;;4997898;28;20848;-46
2022/09/04 06:24:52;;;;;;;3.43;3.20;;;22.00;68.20;;;;;;5020098;28;20432;-46
2022/09/04 06:27:28;;;;;;;3.10;2.90;;;22.00;67.20;;;;;;5031105;28;20432;-46
2022/09/04 06:30:06;;;;;;;3.57;3.37;;;21.90;68.30;;;;;;5025437;28;20438;-46
2022/09/04 06:33:06;;;;;;;3.40;3.10;;;22.00;69.20;;;;;;5030947;28;20527;-46
2022/09/04 06:35:35;;;;;;;2.87;2.67;;;22.20;69.20;;;;;;5029963;28;20435;-46
2022/09/04 06:38:33;;;;;;;3.23;3.03;;;22.50;69.00;;;;;;5029260;28;20483;-46
2022/09/04 06:41:19;;;;;;;3.33;3.00;;;22.60;68.50;;;;;;5030395;28;20439;-46
2022/09/04 06:44:00;;;;;;;3.40;3.20;;;22.90;67.90;;;;;;5022621;28;20533;-46
2022/09/04 06:46:40;;;;;;;2.90;2.70;;;23.10;67.20;;;;;;5010384;28;20448;-47
2022/09/04 06:49:06;;;;;;;5.60;3.20;;;23.30;65.90;;;;;;5011014;28;20428;-46
2022/09/04 06:51:52;;;;;;;3.50;3.20;;;23.50;65.80;;;;;;5010476;28;20959;-47
2022/09/04 06:54:36;;;;;;;5.00;2.73;;;23.60;65.70;;;;;;5006167;28;21010;-46
2022/09/04 06:57:07;;;;;;;3.23;3.00;;;23.80;65.60;;;;;;5010996;28;20433;-47
2022/09/04 07:00:09;;;;;;;3.30;3.00;;;23.90;66.10;;;;;;5010521;28;20486;-47
2022/09/04 07:02:49;;;;;;;3.30;3.10;;;24.10;65.20;;;;;;5010668;28;20424;-46
2022/09/04 07:05:30;;;;;;;2.77;2.57;;;24.30;64.50;;;;;;5008308;28;20433;-47
2022/09/04 07:08:17;;;;;;;2.80;2.60;;;24.30;62.90;;;;;;5010903;28;20440;-47
2022/09/04 07:10:50;;;;;;;2.60;2.40;;;24.30;63.50;;;;;;5030394;28;21172;-46
2022/09/04 07:13:54;;;;;;;3.50;3.20;;;24.40;64.00;;;;;;5034605;28;20503;-46
2022/09/04 07:16:42;;;;;;;3.03;2.83;;;24.50;64.10;;;;;;4991116;28;20477;-46
2022/09/04 07:19:31;;;;;;;3.80;3.33;;;24.80;64.00;;;;;;4991696;28;21043;-47
2022/09/04 07:22:25;;;;;;;3.57;3.27;;;25.00;62.20;;;;;;5025053;28;20455;-46
2022/09/04 07:24:55;;;;;;;3.17;2.97;;;24.90;62.30;;;;;;5033389;28;20957;-47
2022/09/04 07:27:39;;;;;;;3.53;3.23;;;24.90;62.00;;;;;;5034613;28;20508;-46
2022/09/04 07:30:08;;;;;;;2.73;2.60;;;24.70;61.70;;;;;;5033641;28;20793;-47
2022/09/04 07:32:52;;;;;;;3.10;2.87;;;24.90;62.60;;;;;;5032933;28;20424;-47
2022/09/04 07:35:27;;;;;;;4.27;3.50;;;25.00;62.20;;;;;;5033094;28;20515;-47
2022/09/04 07:38:27;;;;;;;3.40;3.00;;;25.30;62.40;;;;;;5034284;28;20479;-47
2022/09/04 07:41:27;;;;;;;3.67;3.37;;;25.70;61.40;;;;;;5033674;28;20444;-46
2022/09/04 07:44:08;;;;;;;2.97;2.70;;;25.90;60.40;;;;;;5022611;28;20598;-47
2022/09/04 07:47:06;;;;;;;3.43;3.13;;;26.20;59.60;;;;;;5013513;28;20820;-46
2022/09/04 07:49:43;;;;;;;4.30;2.53;;;26.40;59.40;;;;;;4994544;28;20811;-46
2022/09/04 07:52:35;;;;;;;3.47;3.27;;;26.50;58.80;;;;;;5014272;28;20428;-46
2022/09/04 07:55:21;;;;;;;3.70;3.37;;;26.70;58.60;;;;;;5013436;28;20429;-46
2022/09/04 07:58:11;;;;;;;6.53;3.40;;;26.80;58.00;;;;;;5013062;28;20542;-47
2022/09/04 08:00:49;;;;;;;3.23;3.03;;;27.00;57.80;;;;;;5013655;28;20586;-48
2022/09/04 08:03:30;;;;;;;3.67;3.37;;;27.00;56.90;;;;;;5014135;28;20482;-47
2022/09/04 08:06:26;;;;;;;2.90;2.63;;;27.10;56.40;;;;;;5013545;28;20441;-47
2022/09/04 08:09:09;;;;;;;4.23;2.90;;;27.00;55.40;;;;;;5027281;28;20439;-47
2022/09/04 08:11:51;;;;;;;3.33;2.97;;;27.10;56.40;;;;;;5033079;28;20428;-46
2022/09/04 08:14:35;;;;;;;3.33;3.13;;;27.20;55.10;;;;;;5033188;28;20431;-46
2022/09/04 08:17:32;;;;;;;3.13;2.93;;;27.40;54.50;;;;;;5026631;28;20528;-47
2022/09/04 08:20:08;;;;;;;3.33;3.13;;;27.50;54.40;;;;;;5012498;28;20479;-46
2022/09/04 08:22:52;;;;;;;2.67;2.47;;;27.60;53.50;;;;;;5013634;28;20530;-46
2022/09/04 08:25:28;;;;;;;3.00;2.70;;;27.70;53.60;;;;;;5011032;28;20455;-47
2022/09/04 08:28:20;;;;;;;2.93;2.73;;;27.80;53.30;;;;;;5013611;28;20432;-47
2022/09/04 08:31:06;;;;;;;3.13;2.90;;;27.80;53.90;;;;;;5012845;28;20440;-46
2022/09/04 08:33:50;;;;;;;2.80;2.60;;;27.80;52.40;;;;;;5013142;28;20443;-46
2022/09/04 08:36:37;;;;;;;3.00;2.47;;;27.90;52.80;;;;;;5013003;28;20436;-47
2022/09/04 08:39:09;;;;;;;2.87;2.67;;;28.00;52.80;;;;;;5013250;28;20480;-47
2022/09/04 08:41:44;;;;;;;2.67;2.47;;;28.20;52.00;;;;;;5012501;28;20957;-46
2022/09/04 08:44:42;;;;;;;2.90;2.60;;;28.30;51.90;;;;;;5013092;28;20432;-46
2022/09/04 08:47:34;;;;;;;2.73;2.53;;;28.50;51.90;;;;;;5013359;28;20443;-46
2022/09/04 08:50:24;;;;;;;2.83;2.63;;;28.50;51.10;;;;;;5012691;28;20441;-46
2022/09/04 08:53:23;;;;;;;2.70;2.50;;;28.70;50.80;;;;;;5011502;28;20475;-47
2022/09/04 08:55:54;;;;;;;2.80;2.60;;;28.50;50.60;;;;;;5012391;28;20433;-46
2022/09/04 08:58:47;;;;;;;2.47;2.27;;;28.60;52.20;;;;;;5012762;28;20492;-47
2022/09/04 09:01:34;;;;;;;5.40;2.33;;;28.60;50.50;;;;;;5012301;28;20494;-46
2022/09/04 09:04:37;;;;;;;2.20;1.90;;;28.70;51.10;;;;;;5012438;28;20811;-46
2022/09/04 09:07:27;;;;;;;3.50;2.40;;;28.80;51.60;;;;;;5012610;28;20962;-46
2022/09/04 09:10:17;;;;;;;2.87;2.67;;;29.00;50.50;;;;;;5002209;28;20516;-48
2022/09/04 09:12:49;;;;;;;3.80;2.50;;;29.20;50.10;;;;;;5012590;28;20468;-47
2022/09/04 09:15:43;;;;;;;2.47;2.23;;;29.30;50.20;;;;;;5011842;28;20441;-46
2022/09/04 09:18:36;;;;;;;2.43;2.27;;;29.40;49.70;;;;;;5012385;28;20524;-46
2022/09/04 09:21:10;;;;;;;2.50;2.30;;;29.60;49.50;;;;;;5001904;28;20436;-48
2022/09/04 09:23:50;;;;;;;1.93;1.83;;;29.70;50.10;;;;;;5012166;28;20494;-46
2022/09/04 09:26:28;;;;;;;3.13;2.37;;;29.90;49.50;;;;;;5011803;28;20843;-46
2022/09/04 09:29:42;;;;;;;2.40;2.30;;;30.10;48.80;;;;;;5012476;28;20527;-47
2022/09/04 09:32:38;;;;;;;2.30;2.20;;;30.20;48.10;;;;;;5011331;28;20443;-48
2022/09/04 09:35:07;;;;;;;3.30;2.17;;;30.20;48.10;;;;;;5011331;28;20491;-47
2022/09/04 09:38:01;;;;;;;2.37;2.17;;;30.20;48.00;;;;;;5012151;28;20445;-46
2022/09/04 09:40:40;;;;;;;1.97;1.87;;;30.10;48.10;;;;;;5011596;28;20425;-46
2022/09/04 09:43:28;;;;;;;1.87;1.77;;;30.20;48.20;;;;;;5011577;28;20476;-47
2022/09/04 09:46:18;;;;;;;1.90;1.80;;;30.30;46.90;;;;;;5010119;28;20506;-46
2022/09/04 09:48:44;;;;;;;2.70;1.97;;;30.40;45.80;;;;;;5012103;28;20432;-46
2022/09/04 09:51:15;;;;;;;2.00;1.90;;;30.50;45.30;;;;;;5011401;28;20428;-47
2022/09/04 09:54:02;;;;;;;1.97;1.77;;;30.40;45.40;;;;;;5011420;28;20240;-47
2022/09/04 09:56:57;;;;;;;1.97;1.87;;;30.40;45.60;;;;;;5011237;28;20436;-47
2022/09/04 10:00:03;;;;;;;2.77;2.50;;;30.40;45.60;;;;;;5012013;28;20488;-48
2022/09/04 10:02:45;;;;;;;2.17;2.07;;;30.30;44.80;;;;;;5011477;28;20437;-47
2022/09/04 10:05:31;;;;;;;2.27;2.17;;;30.50;45.50;;;;;;5010686;28;20465;-47
2022/09/04 10:08:18;;;;;;;2.20;2.00;;;30.60;46.00;;;;;;5017799;28;20435;-47
2022/09/04 10:10:52;;;;;;;2.03;1.93;;;30.80;45.80;;;;;;5030559;28;20438;-46
2022/09/04 10:13:49;;;;;;;2.43;2.00;;;31.00;44.80;;;;;;5029052;28;21012;-47
2022/09/04 10:16:41;;;;;;;1.80;1.70;;;31.10;44.00;;;;;;5030268;28;20822;-46
2022/09/04 10:19:45;;;;;;;1.97;1.87;;;31.10;42.70;;;;;;5011842;28;20508;-47
2022/09/04 10:22:36;;;;;;;5.73;1.90;;;31.30;42.60;;;;;;5011148;28;20452;-47
2022/09/04 10:25:36;;;;;;;1.87;1.60;;;31.60;42.60;;;;;;5010529;28;20441;-51
2022/09/04 10:28:04;;;;;;;2.17;2.07;;;31.70;42.30;;;;;;5011470;28;20436;-50
2022/09/04 10:30:54;;;;;;;2.10;1.80;;;31.90;41.60;;;;;;5010634;28;20444;-50
2022/09/04 10:33:43;;;;;;;2.60;1.73;;;32.10;41.10;;;;;;5011263;28;20456;-48
2022/09/04 10:36:21;;;;;;;1.77;1.63;;;32.10;39.20;;;;;;5010797;28;20436;-47
2022/09/04 10:42:07;;;;;;;3.43;1.80;;;32.10;38.70;;;;;;5010174;28;20487;-47
2022/09/04 10:44:58;;;;;;;1.57;1.47;;;32.10;39.20;;;;;;5009949;28;20563;-47
2022/09/04 10:47:57;;;;;;;1.50;1.40;;;32.10;39.00;;;;;;5011083;28;20938;-47
2022/09/04 10:50:55;;;;;;;1.80;1.70;;;32.10;38.90;;;;;;5002401;28;20484;-51
2022/09/04 10:53:50;;;;;;;3.40;1.60;;;31.90;39.80;;;;;;5010645;28;20437;-51
2022/09/04 10:56:25;;;;;;;2.93;2.10;;;31.70;40.40;;;;;;5010251;28;20986;-51
2022/09/04 10:59:20;;;;;;;1.60;1.50;;;31.40;39.80;;;;;;5011047;28;20483;-48
2022/09/04 11:02:02;;;;;;;1.80;1.70;;;31.30;40.20;;;;;;5010256;28;20444;-47
2022/09/04 11:04:33;;;;;;;2.30;1.70;;;31.20;40.30;;;;;;5010292;28;20424;-51
2022/09/04 11:07:36;;;;;;;2.20;1.67;;;31.10;40.00;;;;;;5009336;28;20574;-51
2022/09/04 11:10:24;;;;;;;2.00;1.90;;;31.10;40.20;;;;;;4998705;28;20885;-47
2022/09/04 11:13:10;;;;;;;2.40;1.70;;;31.10;39.90;;;;;;5010614;28;20908;-49
2022/09/04 11:15:51;;;;;;;1.90;1.47;;;31.10;39.50;;;;;;5010398;28;20425;-47
2022/09/04 11:18:27;;;;;;;1.90;1.80;;;31.20;39.60;;;;;;5010684;28;20484;-51
2022/09/04 11:21:22;;;;;;;2.30;1.70;;;31.40;39.60;;;;;;5010269;28;20435;-48
2022/09/04 11:23:56;;;;;;;1.50;1.40;;;31.70;39.20;;;;;;4998782;28;20563;-47
2022/09/04 11:27:00;;;;;;;7.30;1.97;;;32.10;38.60;;;;;;5010333;28;20433;-48
2022/09/04 11:29:39;;;;;;;1.97;1.83;;;32.40;37.70;;;;;;5010750;28;20436;-48
2022/09/04 11:32:33;;;;;;;1.43;1.33;;;32.60;37.40;;;;;;5010675;28;20498;-51
2022/09/04 11:35:22;;;;;;;1.70;1.60;;;32.80;36.40;;;;;;5008049;28;20449;-47
2022/09/04 11:37:58;;;;;;;2.07;1.43;;;33.10;36.60;;;;;;5010584;28;20823;-48
2022/09/04 11:40:48;;;;;;;3.57;2.00;;;33.10;36.70;;;;;;5010075;28;20429;-51
2022/09/04 11:43:53;;;;;;;2.00;1.70;;;33.10;36.40;;;;;;5010054;28;21076;-51
2022/09/04 11:46:35;;;;;;;5.50;1.97;;;33.30;36.80;;;;;;5010006;28;20421;-47
2022/09/04 11:49:21;;;;;;;1.70;1.57;;;33.50;37.40;;;;;;5010499;28;20808;-49
2022/09/04 11:52:15;;;;;;;1.57;1.47;;;33.80;36.20;;;;;;5009837;28;20946;-48
2022/09/04 11:55:16;;;;;;;2.10;1.90;;;34.00;35.40;;;;;;5009925;28;20429;-50
2022/09/04 11:57:54;;;;;;;1.53;1.43;;;34.30;35.00;;;;;;5014069;28;20494;-49
2022/09/04 12:00:19;;;;;;;1.77;1.67;;;34.50;34.50;;;;;;5012066;28;20429;-51
2022/09/04 12:03:04;;;;;;;2.00;1.90;;;34.60;33.40;;;;;;5014151;28;20517;-48
2022/09/04 12:05:44;;;;;;;1.90;1.70;;;34.60;34.10;;;;;;5013354;28;20190;-50
2022/09/04 12:08:43;;;;;;;1.30;1.20;;;34.50;32.40;;;;;;5022221;28;20436;-49
2022/09/04 12:11:16;;;;;;;1.67;1.57;;;34.50;31.30;;;;;;5032985;28;20788;-47
2022/09/04 12:14:18;;;;;;;4.00;1.50;;;34.40;32.20;;;;;;5033066;28;21315;-51
2022/09/04 12:17:05;;;;;;;1.93;1.83;;;34.30;31.80;;;;;;5028431;28;20444;-49
2022/09/04 12:19:49;;;;;;;1.70;1.60;;;34.00;31.70;;;;;;5006240;28;20480;-48
2022/09/04 12:22:22;;;;;;;2.70;2.10;;;33.90;32.00;;;;;;5013604;28;20512;-46
2022/09/04 12:25:04;;;;;;;1.90;1.70;;;33.80;32.20;;;;;;5012775;28;20467;-51
2022/09/04 12:27:57;;;;;;;1.70;1.43;;;33.70;32.80;;;;;;5011673;28;20447;-49
2022/09/04 12:30:53;;;;;;;1.57;1.47;;;33.60;32.40;;;;;;5013146;28;20460;-47
2022/09/04 12:33:18;;;;;;;1.80;1.70;;;33.60;31.60;;;;;;5013189;28;20485;-46
2022/09/04 12:36:05;;;;;;;1.87;1.77;;;33.50;31.30;;;;;;5013007;28;20433;-48
2022/09/04 12:38:46;;;;;;;1.50;1.40;;;33.20;31.20;;;;;;5013120;28;20229;-51
2022/09/04 12:41:18;;;;;;;1.73;1.63;;;33.20;31.70;;;;;;5012884;28;20436;-48
2022/09/04 12:44:10;;;;;;;1.90;1.60;;;33.20;32.00;;;;;;5012476;28;21306;-48
2022/09/04 12:46:54;;;;;;;1.70;1.60;;;33.20;32.10;;;;;;5012373;28;20429;-47
2022/09/04 12:49:26;;;;;;;2.07;1.43;;;33.20;31.80;;;;;;5013160;28;20433;-51
2022/09/04 12:52:17;;;;;;;1.47;1.30;;;33.30;32.10;;;;;;5013034;28;20516;-49
2022/09/04 12:55:08;;;;;;;2.40;1.37;;;33.40;31.90;;;;;;5010346;28;20866;-48
2022/09/04 12:58:10;;;;;;;1.50;1.40;;;33.70;31.40;;;;;;5012524;28;20437;-51
2022/09/04 13:01:07;;;;;;;1.47;1.43;;;33.70;31.00;;;;;;5012300;28;20438;-50
2022/09/04 13:04:14;;;;;;;2.00;1.60;;;33.80;31.50;;;;;;5012367;28;20429;-50
2022/09/04 13:07:13;;;;;;;1.47;1.37;;;33.90;30.80;;;;;;5000644;28;20441;-51
2022/09/04 13:09:47;;;;;;;1.80;1.70;;;33.90;30.70;;;;;;4999930;28;20487;-51
2022/09/04 13:12:16;;;;;;;1.57;1.47;;;34.00;30.80;;;;;;5012657;28;20527;-51
2022/09/04 13:14:44;;;;;;;1.70;1.60;;;34.10;30.70;;;;;;5011817;28;20787;-51
2022/09/04 13:17:43;;;;;;;1.60;1.20;;;34.20;30.50;;;;;;5012166;28;21231;-52
2022/09/04 13:20:21;;;;;;;1.50;1.40;;;34.20;31.00;;;;;;5011755;28;20917;-51
2022/09/04 13:23:11;;;;;;;1.53;1.43;;;34.30;30.80;;;;;;5010884;28;20487;-53
2022/09/04 13:26:01;;;;;;;1.63;1.53;;;34.40;30.50;;;;;;5011697;28;20432;-51
2022/09/04 13:29:01;;;;;;;1.43;1.33;;;34.40;30.30;;;;;;5012301;28;20451;-51
2022/09/04 13:31:46;;;;;;;2.00;1.80;;;34.20;30.40;;;;;;5011775;28;20447;-49
2022/09/04 13:34:25;;;;;;;1.50;1.50;;;34.30;30.50;;;;;;5012067;28;20436;-51
2022/09/04 13:37:22;;;;;;;1.60;1.23;;;34.30;30.30;;;;;;5011900;28;20568;-52
2022/09/04 13:40:12;;;;;;;1.70;1.60;;;34.30;30.50;;;;;;4992102;28;21290;-49
2022/09/04 13:42:44;;;;;;;1.83;1.73;;;34.20;30.80;;;;;;5011776;28;20484;-51
2022/09/04 13:45:14;;;;;;;1.63;1.50;;;34.40;30.30;;;;;;5010743;28;20929;-48
2022/09/04 13:47:48;;;;;;;1.50;1.40;;;34.50;30.70;;;;;;5011587;28;20433;-50
2022/09/04 13:50:28;;;;;;;1.80;1.70;;;34.30;29.90;;;;;;5010906;28;20437;-48
2022/09/04 13:53:04;;;;;;;1.70;1.60;;;34.10;30.00;;;;;;5011834;28;20424;-49
2022/09/04 13:55:36;;;;;;;1.60;1.50;;;33.80;30.70;;;;;;5011591;28;20425;-47
2022/09/04 13:58:34;;;;;;;1.93;1.73;;;33.80;30.80;;;;;;5011725;28;20559;-50
2022/09/04 14:01:05;;;;;;;1.53;1.43;;;33.60;30.80;;;;;;5011206;28;20538;-48
2022/09/04 14:03:47;;;;;;;2.30;1.40;;;33.40;31.10;;;;;;5011309;28;20452;-48
2022/09/04 14:06:15;;;;;;;1.70;1.60;;;33.70;31.10;;;;;;5011030;28;20440;-51
2022/09/04 14:08:43;;;;;;;1.50;1.40;;;33.90;30.80;;;;;;5023279;28;20507;-48
2022/09/04 14:11:56;;;;;;;2.10;1.43;;;34.20;30.30;;;;;;5030825;28;20424;-47
2022/09/04 14:14:50;;;;;;;1.17;1.17;;;34.00;30.00;;;;;;5031025;28;20497;-48
2022/09/04 14:17:25;;;;;;;1.50;1.40;;;34.00;30.50;;;;;;5021370;28;20455;-48
2022/09/04 14:20:09;;;;;;;1.67;1.57;;;34.30;30.00;;;;;;5010903;28;20488;-49
2022/09/04 14:23:10;;;;;;;1.67;1.57;;;34.30;30.00;;;;;;5011285;28;20444;-47